Gilgit Weather



Gilgit's Current Weather

Temprature -12.51o overcast clouds

overcast clouds

Rain: 0 %

Min Temprature-12.51o
Max Temprature-12.51o
Humidity62
Wind Speed1.51 m/h
Sun Rise07:07:21
Sun Set17:23:04
Current Time: 27-Jan-2020 18:25:05
Lat/Lon: 35.92, 74.31




Gilgit's Geo Location



Gilgit's Weather Forecast

Time Overall Temp Min Temp Max Temp Humidity Wind Speed Rain
27-Jan-2020 (Mon)
20:00:00 overcast clouds -13.220 -13.220 -13.220 45 1.88 m/h 0 %
23:00:00 overcast clouds -14.430 -14.430 -14.430 47 1.39 m/h 0 %
28-Jan-2020 (Tue)
02:00:00 overcast clouds -14.800 -14.800 -14.800 47 2.01 m/h 0 %
05:00:00 overcast clouds -15.870 -15.870 -15.870 45 1.76 m/h 0 %
08:00:00 overcast clouds -15.950 -15.950 -15.950 40 1.18 m/h 0 %
11:00:00 overcast clouds -12.600 -12.600 -12.600 43 1.64 m/h 0 %
14:00:00 overcast clouds -11.190 -11.190 -11.190 56 1.46 m/h 0 %
17:00:00 overcast clouds -12.900 -12.900 -12.900 57 1.89 m/h 0 %
20:00:00 overcast clouds -13.940 -13.940 -13.940 49 1.27 m/h 0 %
23:00:00 overcast clouds -13.770 -13.770 -13.770 46 1.29 m/h 0 %
29-Jan-2020 (Wed)
02:00:00 overcast clouds -13.880 -13.880 -13.880 45 1.49 m/h 0 %
05:00:00 overcast clouds -13.560 -13.560 -13.560 47 1.5 m/h 0 %
08:00:00 overcast clouds -14.170 -14.170 -14.170 49 1.17 m/h 0 %
11:00:00 overcast clouds -10.630 -10.630 -10.630 51 1.4 m/h 0 %
14:00:00 overcast clouds -9.600 -9.600 -9.600 52 1 m/h 0 %
17:00:00 light snow -10.650 -10.650 -10.650 74 0.6 m/h 0 %
20:00:00 light snow -12.300 -12.300 -12.300 77 1.29 m/h 0 %
23:00:00 light snow -12.880 -12.880 -12.880 82 0.87 m/h 0 %
30-Jan-2020 (Thu)
02:00:00 light snow -13.820 -13.820 -13.820 82 0.94 m/h 0 %
05:00:00 overcast clouds -14.370 -14.370 -14.370 77 0.85 m/h 0 %
08:00:00 overcast clouds -14.230 -14.230 -14.230 71 1.02 m/h 0 %
11:00:00 overcast clouds -11.560 -11.560 -11.560 74 1.33 m/h 0 %
14:00:00 few clouds -9.800 -9.800 -9.800 69 0.84 m/h 0 %
17:00:00 few clouds -12.680 -12.680 -12.680 72 1.33 m/h 0 %
20:00:00 broken clouds -14.000 -14.000 -14.000 58 2.05 m/h 0 %
23:00:00 broken clouds -14.220 -14.220 -14.220 58 1.54 m/h 0 %
31-Jan-2020 (Fri)
02:00:00 overcast clouds -14.460 -14.460 -14.460 58 1.22 m/h 0 %
05:00:00 overcast clouds -14.810 -14.810 -14.810 60 1.19 m/h 0 %
08:00:00 overcast clouds -15.200 -15.200 -15.200 59 1.04 m/h 0 %
11:00:00 overcast clouds -12.380 -12.380 -12.380 61 1.29 m/h 0 %
14:00:00 overcast clouds -10.990 -10.990 -10.990 60 1.06 m/h 0 %
17:00:00 overcast clouds -12.880 -12.880 -12.880 68 0.45 m/h 0 %
20:00:00 overcast clouds -13.090 -13.090 -13.090 61 0.87 m/h 0 %
23:00:00 overcast clouds -13.620 -13.620 -13.620 60 1.46 m/h 0 %
01-Feb-2020 (Sat)
02:00:00 broken clouds -15.240 -15.240 -15.240 62 1.72 m/h 0 %
05:00:00 scattered clouds -16.300 -16.300 -16.300 62 2.12 m/h 0 %
08:00:00 clear sky -16.250 -16.250 -16.250 61 1.72 m/h 0 %
11:00:00 clear sky -12.830 -12.830 -12.830 63 1.19 m/h 0 %
14:00:00 clear sky -11.070 -11.070 -11.070 68 1.01 m/h 0 %
17:00:00 clear sky -13.980 -13.980 -13.980 71 1.1 m/h 0 %

Famous Cities (61)